Marathon, FL (33050)

3:45 PM EDT on April 25, 2017 (GMT -0400)
MC0923 | | Change Station

Elev 16 ft 24.77 °N, 80.91 °W | Updated 3 days ago

Clear
Clear
78.0 °F
Feels Like 80 °F
N
0.0
Wind Variable Wind from NW
Gusts 0.0 mph

Today
High -- | Low -- °F
--% Chance of Precip.
Yesterday
High -- | Low -- °F
Precip. -- in
Pressure 29.88 in
Visibility 10.0 miles
Clouds Few 3800 ft
Heat Index 80 °F
Dew Point 73 °F
Humidity 84%
Rainfall 0.04 in
Snow Depth Not available.
6:53 AM 7:51 PM
Waning Crescent, 1% visible
METAR KNQX 251853Z 28009KT 10SM FEW038 26/18 A2989 RMK AO2 SLP119 T02610178 $
Pressure 29.88 in
Visibility 10.0 miles
Clouds Few 3800 ft
Heat Index 80 °F
Dew Point 73 °F
Humidity 84%
Rainfall 0.04 in
Snow Depth Not available.
6:53 AM 7:51 PM
Waning Crescent, 1% visible
METAR KNQX 251853Z 28009KT 10SM FEW038 26/18 A2989 RMK AO2 SLP119 T02610178 $

Get Severe Weather Alerts

Thanks for signing up!

Be on the lookout for a verification email in your inbox.

You'll start receiving the daily forecast at 8 AM.

×

10-Day Weather Forecast

Almanac

Astronomy

Apr. 25, 2017 Rise Set
Actual Time
Civil Twilight
Nautical Twilight
Astronomical Twilight
Moon
Length of Visible Light
Length of Day
Tomorrow will be .
, % of the Moon is Illuminated

Today's Extremes

State Highs State Lows

Community

WunderPhotos

WunderBlog® & News

Nearby

Air Quality

  Air Quality AQ Index Pollutant
Not available.

Snow Depth

Station Depth Elevation

Earthquake Activity

City Distance Mag. Time & Date
Minimum magnitude displayed is 2.5.

Coastal Water Temperatures

Place Temperature

Stations

Nearby Weather Stations

Station Location Temp. Windchill Dew Point Humidity Wind Precip. Elev Updated Type
                   

Watches & Warnings

There are currently no watches in effect.